sensor_id;sensor_type;location;lat;lon;timestamp;P1;durP1;ratioP1;P2;durP2;ratioP2
12824;SDS011;6478;50.984;11.044;2022-07-22T00:01:43;6.33;;;4.20;;
12824;SDS011;6478;50.984;11.044;2022-07-22T00:04:09;4.60;;;4.20;;
12824;SDS011;6478;50.984;11.044;2022-07-22T00:06:35;5.03;;;4.53;;
12824;SDS011;6478;50.984;11.044;2022-07-22T00:09:01;5.30;;;4.40;;
12824;SDS011;6478;50.984;11.044;2022-07-22T00:11:27;5.70;;;4.57;;
12824;SDS011;6478;50.984;11.044;2022-07-22T00:13:53;4.77;;;4.30;;
12824;SDS011;6478;50.984;11.044;2022-07-22T00:16:19;5.07;;;4.20;;
12824;SDS011;6478;50.984;11.044;2022-07-22T00:18:45;5.60;;;4.40;;
12824;SDS011;6478;50.984;11.044;2022-07-22T00:21:11;5.17;;;4.50;;
12824;SDS011;6478;50.984;11.044;2022-07-22T00:23:37;4.93;;;4.43;;
12824;SDS011;6478;50.984;11.044;2022-07-22T00:26:03;6.03;;;5.20;;
12824;SDS011;6478;50.984;11.044;2022-07-22T00:28:29;4.60;;;4.20;;
12824;SDS011;6478;50.984;11.044;2022-07-22T00:30:55;6.40;;;4.80;;
12824;SDS011;6478;50.984;11.044;2022-07-22T00:33:21;5.87;;;5.10;;
12824;SDS011;6478;50.984;11.044;2022-07-22T00:35:47;5.00;;;4.60;;
12824;SDS011;6478;50.984;11.044;2022-07-22T00:38:13;5.10;;;4.60;;
12824;SDS011;6478;50.984;11.044;2022-07-22T00:40:39;4.87;;;4.47;;
12824;SDS011;6478;50.984;11.044;2022-07-22T00:43:06;5.83;;;5.23;;
12824;SDS011;6478;50.984;11.044;2022-07-22T00:45:32;5.97;;;5.37;;
12824;SDS011;6478;50.984;11.044;2022-07-22T00:47:58;5.10;;;4.70;;
12824;SDS011;6478;50.984;11.044;2022-07-22T00:50:24;6.07;;;5.43;;
12824;SDS011;6478;50.984;11.044;2022-07-22T00:52:50;6.20;;;5.60;;
12824;SDS011;6478;50.984;11.044;2022-07-22T00:55:16;6.70;;;4.90;;
12824;SDS011;6478;50.984;11.044;2022-07-22T00:57:42;7.10;;;6.40;;
12824;SDS011;6478;50.984;11.044;2022-07-22T01:00:10;6.37;;;5.77;;
12824;SDS011;6478;50.984;11.044;2022-07-22T01:02:41;6.57;;;5.87;;
12824;SDS011;6478;50.984;11.044;2022-07-22T01:05:07;6.00;;;5.40;;
12824;SDS011;6478;50.984;11.044;2022-07-22T01:07:33;6.20;;;5.60;;
12824;SDS011;6478;50.984;11.044;2022-07-22T01:09:59;5.43;;;4.93;;
12824;SDS011;6478;50.984;11.044;2022-07-22T01:12:25;6.27;;;5.67;;
12824;SDS011;6478;50.984;11.044;2022-07-22T01:14:51;6.10;;;5.50;;
12824;SDS011;6478;50.984;11.044;2022-07-22T01:17:17;6.10;;;5.50;;
12824;SDS011;6478;50.984;11.044;2022-07-22T01:19:43;6.67;;;6.03;;
12824;SDS011;6478;50.984;11.044;2022-07-22T01:22:09;5.90;;;5.37;;
12824;SDS011;6478;50.984;11.044;2022-07-22T01:24:35;6.50;;;5.90;;
12824;SDS011;6478;50.984;11.044;2022-07-22T01:27:01;5.90;;;5.40;;
12824;SDS011;6478;50.984;11.044;2022-07-22T01:29:27;6.27;;;5.60;;
12824;SDS011;6478;50.984;11.044;2022-07-22T01:31:53;6.53;;;5.20;;
12824;SDS011;6478;50.984;11.044;2022-07-22T01:34:19;5.73;;;5.13;;
12824;SDS011;6478;50.984;11.044;2022-07-22T01:36:45;5.50;;;5.00;;
12824;SDS011;6478;50.984;11.044;2022-07-22T01:39:11;5.13;;;4.73;;
12824;SDS011;6478;50.984;11.044;2022-07-22T01:41:38;5.30;;;4.73;;
12824;SDS011;6478;50.984;11.044;2022-07-22T01:44:04;6.43;;;5.37;;
12824;SDS011;6478;50.984;11.044;2022-07-22T01:46:30;5.67;;;5.13;;
12824;SDS011;6478;50.984;11.044;2022-07-22T01:48:56;5.50;;;5.00;;
12824;SDS011;6478;50.984;11.044;2022-07-22T01:51:23;6.63;;;5.57;;
12824;SDS011;6478;50.984;11.044;2022-07-22T01:53:49;5.60;;;4.97;;
12824;SDS011;6478;50.984;11.044;2022-07-22T01:56:14;5.07;;;4.63;;
12824;SDS011;6478;50.984;11.044;2022-07-22T01:58:41;4.77;;;4.37;;
12824;SDS011;6478;50.984;11.044;2022-07-22T02:01:07;5.40;;;4.60;;
12824;SDS011;6478;50.984;11.044;2022-07-22T02:03:33;4.87;;;4.37;;
12824;SDS011;6478;50.984;11.044;2022-07-22T02:05:59;5.10;;;4.60;;
12824;SDS011;6478;50.984;11.044;2022-07-22T02:08:25;5.30;;;4.53;;
12824;SDS011;6478;50.984;11.044;2022-07-22T02:10:51;4.57;;;4.07;;
12824;SDS011;6478;50.984;11.044;2022-07-22T02:13:17;4.97;;;4.47;;
12824;SDS011;6478;50.984;11.044;2022-07-22T02:15:43;5.10;;;4.57;;
12824;SDS011;6478;50.984;11.044;2022-07-22T02:18:10;4.50;;;4.10;;
12824;SDS011;6478;50.984;11.044;2022-07-22T02:20:36;4.03;;;3.67;;
12824;SDS011;6478;50.984;11.044;2022-07-22T02:23:02;3.73;;;3.43;;
12824;SDS011;6478;50.984;11.044;2022-07-22T02:25:28;4.40;;;3.60;;
12824;SDS011;6478;50.984;11.044;2022-07-22T02:27:54;3.60;;;3.30;;
12824;SDS011;6478;50.984;11.044;2022-07-22T02:30:20;4.30;;;3.40;;
12824;SDS011;6478;50.984;11.044;2022-07-22T02:32:46;3.07;;;2.77;;
12824;SDS011;6478;50.984;11.044;2022-07-22T02:35:11;3.40;;;3.10;;
12824;SDS011;6478;50.984;11.044;2022-07-22T02:37:37;4.00;;;3.20;;
12824;SDS011;6478;50.984;11.044;2022-07-22T02:40:04;3.80;;;3.10;;
12824;SDS011;6478;50.984;11.044;2022-07-22T02:42:30;3.67;;;2.97;;
12824;SDS011;6478;50.984;11.044;2022-07-22T02:44:57;3.27;;;2.97;;
12824;SDS011;6478;50.984;11.044;2022-07-22T02:47:23;3.20;;;2.90;;
12824;SDS011;6478;50.984;11.044;2022-07-22T02:49:49;3.00;;;2.70;;
12824;SDS011;6478;50.984;11.044;2022-07-22T02:52:14;2.90;;;2.60;;
12824;SDS011;6478;50.984;11.044;2022-07-22T02:54:41;3.00;;;2.70;;
12824;SDS011;6478;50.984;11.044;2022-07-22T02:57:07;3.33;;;3.03;;
12824;SDS011;6478;50.984;11.044;2022-07-22T02:59:33;2.63;;;2.43;;
12824;SDS011;6478;50.984;11.044;2022-07-22T03:01:59;2.60;;;2.40;;
12824;SDS011;6478;50.984;11.044;2022-07-22T03:04:25;2.57;;;2.37;;
12824;SDS011;6478;50.984;11.044;2022-07-22T03:06:50;2.60;;;2.40;;
12824;SDS011;6478;50.984;11.044;2022-07-22T03:09:16;3.03;;;2.67;;
12824;SDS011;6478;50.984;11.044;2022-07-22T03:11:42;2.80;;;2.60;;
12824;SDS011;6478;50.984;11.044;2022-07-22T03:14:08;2.63;;;2.43;;
12824;SDS011;6478;50.984;11.044;2022-07-22T03:16:34;2.40;;;2.20;;
12824;SDS011;6478;50.984;11.044;2022-07-22T03:19:00;2.50;;;2.30;;
12824;SDS011;6478;50.984;11.044;2022-07-22T03:21:26;3.00;;;2.30;;
12824;SDS011;6478;50.984;11.044;2022-07-22T03:23:52;2.33;;;2.20;;
12824;SDS011;6478;50.984;11.044;2022-07-22T03:26:19;2.67;;;2.43;;
12824;SDS011;6478;50.984;11.044;2022-07-22T03:28:45;2.90;;;2.70;;
12824;SDS011;6478;50.984;11.044;2022-07-22T03:31:12;2.70;;;2.50;;
12824;SDS011;6478;50.984;11.044;2022-07-22T03:33:37;2.57;;;2.37;;
12824;SDS011;6478;50.984;11.044;2022-07-22T03:36:03;3.00;;;2.77;;
12824;SDS011;6478;50.984;11.044;2022-07-22T03:38:36;2.97;;;2.67;;
12824;SDS011;6478;50.984;11.044;2022-07-22T03:41:02;2.70;;;2.50;;
12824;SDS011;6478;50.984;11.044;2022-07-22T03:43:28;3.20;;;2.90;;
12824;SDS011;6478;50.984;11.044;2022-07-22T03:45:54;2.90;;;2.60;;
12824;SDS011;6478;50.984;11.044;2022-07-22T03:48:20;2.73;;;2.53;;
12824;SDS011;6478;50.984;11.044;2022-07-22T03:50:46;3.17;;;2.97;;
12824;SDS011;6478;50.984;11.044;2022-07-22T03:53:14;2.70;;;2.50;;
12824;SDS011;6478;50.984;11.044;2022-07-22T03:55:40;2.53;;;2.33;;
12824;SDS011;6478;50.984;11.044;2022-07-22T03:58:06;3.13;;;2.70;;
12824;SDS011;6478;50.984;11.044;2022-07-22T04:00:32;3.07;;;2.80;;
12824;SDS011;6478;50.984;11.044;2022-07-22T04:02:58;3.43;;;3.10;;
12824;SDS011;6478;50.984;11.044;2022-07-22T04:05:24;3.40;;;2.90;;
12824;SDS011;6478;50.984;11.044;2022-07-22T04:07:50;4.70;;;2.73;;
12824;SDS011;6478;50.984;11.044;2022-07-22T04:10:16;3.93;;;2.90;;
12824;SDS011;6478;50.984;11.044;2022-07-22T04:12:42;3.47;;;3.17;;
12824;SDS011;6478;50.984;11.044;2022-07-22T04:15:08;3.20;;;2.90;;
12824;SDS011;6478;50.984;11.044;2022-07-22T04:17:34;3.07;;;2.83;;
12824;SDS011;6478;50.984;11.044;2022-07-22T04:20:00;3.67;;;2.83;;
12824;SDS011;6478;50.984;11.044;2022-07-22T04:22:26;3.50;;;3.20;;
12824;SDS011;6478;50.984;11.044;2022-07-22T04:24:52;3.87;;;3.27;;
12824;SDS011;6478;50.984;11.044;2022-07-22T04:27:18;7.63;;;5.10;;
12824;SDS011;6478;50.984;11.044;2022-07-22T04:29:44;16.60;;;15.00;;
12824;SDS011;6478;50.984;11.044;2022-07-22T04:32:10;18.83;;;17.03;;
12824;SDS011;6478;50.984;11.044;2022-07-22T04:34:37;15.90;;;14.13;;
12824;SDS011;6478;50.984;11.044;2022-07-22T04:37:03;8.60;;;7.80;;
12824;SDS011;6478;50.984;11.044;2022-07-22T04:39:29;5.90;;;5.30;;
12824;SDS011;6478;50.984;11.044;2022-07-22T04:41:56;6.63;;;4.07;;
12824;SDS011;6478;50.984;11.044;2022-07-22T04:44:21;4.13;;;3.73;;
12824;SDS011;6478;50.984;11.044;2022-07-22T04:46:47;3.63;;;3.33;;
12824;SDS011;6478;50.984;11.044;2022-07-22T04:49:13;5.00;;;3.60;;
12824;SDS011;6478;50.984;11.044;2022-07-22T04:51:39;3.80;;;3.40;;
12824;SDS011;6478;50.984;11.044;2022-07-22T04:54:08;3.67;;;3.37;;
12824;SDS011;6478;50.984;11.044;2022-07-22T04:56:34;3.20;;;2.90;;
12824;SDS011;6478;50.984;11.044;2022-07-22T04:59:00;4.00;;;3.33;;
12824;SDS011;6478;50.984;11.044;2022-07-22T05:01:26;5.03;;;3.73;;
12824;SDS011;6478;50.984;11.044;2022-07-22T05:03:52;3.23;;;2.93;;
12824;SDS011;6478;50.984;11.044;2022-07-22T05:06:18;5.93;;;3.17;;
12824;SDS011;6478;50.984;11.044;2022-07-22T05:08:44;3.33;;;3.03;;
12824;SDS011;6478;50.984;11.044;2022-07-22T05:11:10;4.30;;;3.27;;
12824;SDS011;6478;50.984;11.044;2022-07-22T05:13:37;3.60;;;3.10;;
12824;SDS011;6478;50.984;11.044;2022-07-22T05:16:03;3.33;;;3.03;;
12824;SDS011;6478;50.984;11.044;2022-07-22T05:18:29;4.97;;;3.40;;
12824;SDS011;6478;50.984;11.044;2022-07-22T05:20:55;3.73;;;3.43;;
12824;SDS011;6478;50.984;11.044;2022-07-22T05:23:21;4.40;;;2.90;;
12824;SDS011;6478;50.984;11.044;2022-07-22T05:25:47;3.30;;;3.00;;
12824;SDS011;6478;50.984;11.044;2022-07-22T05:28:13;3.43;;;3.13;;
12824;SDS011;6478;50.984;11.044;2022-07-22T05:30:40;4.20;;;3.07;;
12824;SDS011;6478;50.984;11.044;2022-07-22T05:33:06;3.50;;;3.10;;
12824;SDS011;6478;50.984;11.044;2022-07-22T05:35:32;3.27;;;2.97;;
12824;SDS011;6478;50.984;11.044;2022-07-22T05:37:58;3.50;;;3.20;;
12824;SDS011;6478;50.984;11.044;2022-07-22T05:40:24;3.97;;;3.20;;
12824;SDS011;6478;50.984;11.044;2022-07-22T05:42:50;3.20;;;2.60;;
12824;SDS011;6478;50.984;11.044;2022-07-22T05:45:15;3.17;;;2.90;;
12824;SDS011;6478;50.984;11.044;2022-07-22T05:47:42;3.17;;;2.80;;
12824;SDS011;6478;50.984;11.044;2022-07-22T05:50:08;3.37;;;2.90;;
12824;SDS011;6478;50.984;11.044;2022-07-22T05:52:37;3.00;;;2.70;;
12824;SDS011;6478;50.984;11.044;2022-07-22T05:55:07;3.10;;;2.80;;
12824;SDS011;6478;50.984;11.044;2022-07-22T05:57:33;3.17;;;2.80;;
12824;SDS011;6478;50.984;11.044;2022-07-22T05:59:59;2.70;;;2.50;;
12824;SDS011;6478;50.984;11.044;2022-07-22T06:02:25;3.43;;;2.90;;
12824;SDS011;6478;50.984;11.044;2022-07-22T06:04:51;4.03;;;2.63;;
12824;SDS011;6478;50.984;11.044;2022-07-22T06:07:17;2.30;;;2.10;;
12824;SDS011;6478;50.984;11.044;2022-07-22T06:09:43;2.20;;;2.00;;
12824;SDS011;6478;50.984;11.044;2022-07-22T06:12:09;1.83;;;1.73;;
12824;SDS011;6478;50.984;11.044;2022-07-22T06:14:35;2.00;;;1.70;;
12824;SDS011;6478;50.984;11.044;2022-07-22T06:17:02;3.10;;;1.47;;
12824;SDS011;6478;50.984;11.044;2022-07-22T06:19:28;2.03;;;1.80;;
12824;SDS011;6478;50.984;11.044;2022-07-22T06:21:54;2.37;;;1.60;;
12824;SDS011;6478;50.984;11.044;2022-07-22T06:24:20;2.10;;;1.70;;
12824;SDS011;6478;50.984;11.044;2022-07-22T06:26:46;1.83;;;1.67;;
12824;SDS011;6478;50.984;11.044;2022-07-22T06:29:12;1.30;;;1.20;;
12824;SDS011;6478;50.984;11.044;2022-07-22T06:31:38;1.20;;;1.10;;
12824;SDS011;6478;50.984;11.044;2022-07-22T06:34:04;1.60;;;1.50;;
12824;SDS011;6478;50.984;11.044;2022-07-22T06:36:31;3.90;;;1.23;;
12824;SDS011;6478;50.984;11.044;2022-07-22T06:38:57;1.40;;;1.30;;
12824;SDS011;6478;50.984;11.044;2022-07-22T06:41:24;2.10;;;1.50;;
12824;SDS011;6478;50.984;11.044;2022-07-22T06:43:50;1.60;;;1.50;;
12824;SDS011;6478;50.984;11.044;2022-07-22T06:46:16;1.30;;;1.13;;
12824;SDS011;6478;50.984;11.044;2022-07-22T06:48:42;1.53;;;1.20;;
12824;SDS011;6478;50.984;11.044;2022-07-22T06:51:08;1.43;;;1.00;;
12824;SDS011;6478;50.984;11.044;2022-07-22T06:53:34;1.03;;;0.90;;
12824;SDS011;6478;50.984;11.044;2022-07-22T06:56:00;1.43;;;1.20;;
12824;SDS011;6478;50.984;11.044;2022-07-22T06:58:26;1.37;;;1.10;;
12824;SDS011;6478;50.984;11.044;2022-07-22T07:00:52;2.23;;;1.10;;
12824;SDS011;6478;50.984;11.044;2022-07-22T07:03:18;2.83;;;1.10;;
12824;SDS011;6478;50.984;11.044;2022-07-22T07:05:44;1.10;;;1.00;;
12824;SDS011;6478;50.984;11.044;2022-07-22T07:08:10;1.77;;;1.00;;
12824;SDS011;6478;50.984;11.044;2022-07-22T07:10:36;1.13;;;1.03;;
12824;SDS011;6478;50.984;11.044;2022-07-22T07:13:02;1.10;;;1.00;;
12824;SDS011;6478;50.984;11.044;2022-07-22T07:15:28;1.40;;;1.30;;
12824;SDS011;6478;50.984;11.044;2022-07-22T07:17:55;2.07;;;1.30;;
12824;SDS011;6478;50.984;11.044;2022-07-22T07:20:21;1.40;;;1.20;;
12824;SDS011;6478;50.984;11.044;2022-07-22T07:22:47;2.60;;;1.30;;
12824;SDS011;6478;50.984;11.044;2022-07-22T07:25:13;2.27;;;1.63;;
12824;SDS011;6478;50.984;11.044;2022-07-22T07:27:39;1.30;;;1.20;;
12824;SDS011;6478;50.984;11.044;2022-07-22T07:30:06;1.27;;;1.17;;
12824;SDS011;6478;50.984;11.044;2022-07-22T07:32:33;1.20;;;1.00;;
12824;SDS011;6478;50.984;11.044;2022-07-22T07:34:59;2.43;;;1.10;;
12824;SDS011;6478;50.984;11.044;2022-07-22T07:37:25;0.90;;;0.90;;
12824;SDS011;6478;50.984;11.044;2022-07-22T07:39:51;1.13;;;1.03;;
12824;SDS011;6478;50.984;11.044;2022-07-22T07:42:17;1.30;;;1.20;;
12824;SDS011;6478;50.984;11.044;2022-07-22T07:44:43;1.37;;;1.20;;
12824;SDS011;6478;50.984;11.044;2022-07-22T07:47:09;0.93;;;0.93;;
12824;SDS011;6478;50.984;11.044;2022-07-22T07:49:37;1.50;;;1.40;;
12824;SDS011;6478;50.984;11.044;2022-07-22T07:52:03;1.17;;;1.07;;
12824;SDS011;6478;50.984;11.044;2022-07-22T07:54:29;1.57;;;1.40;;
12824;SDS011;6478;50.984;11.044;2022-07-22T07:56:55;1.13;;;1.10;;
12824;SDS011;6478;50.984;11.044;2022-07-22T07:59:21;2.67;;;1.30;;
12824;SDS011;6478;50.984;11.044;2022-07-22T08:01:47;3.07;;;1.40;;
12824;SDS011;6478;50.984;11.044;2022-07-22T08:04:13;1.33;;;1.23;;
12824;SDS011;6478;50.984;11.044;2022-07-22T08:06:39;1.30;;;1.20;;
12824;SDS011;6478;50.984;11.044;2022-07-22T08:09:05;1.10;;;1.00;;
12824;SDS011;6478;50.984;11.044;2022-07-22T08:11:31;1.20;;;1.10;;
12824;SDS011;6478;50.984;11.044;2022-07-22T08:13:57;1.00;;;1.00;;
12824;SDS011;6478;50.984;11.044;2022-07-22T08:16:23;1.20;;;1.10;;
12824;SDS011;6478;50.984;11.044;2022-07-22T08:18:49;0.90;;;0.90;;
12824;SDS011;6478;50.984;11.044;2022-07-22T08:21:15;2.03;;;1.10;;
12824;SDS011;6478;50.984;11.044;2022-07-22T08:23:41;1.30;;;1.20;;
12824;SDS011;6478;50.984;11.044;2022-07-22T08:26:07;1.00;;;1.00;;
12824;SDS011;6478;50.984;11.044;2022-07-22T08:28:33;2.53;;;0.87;;
12824;SDS011;6478;50.984;11.044;2022-07-22T08:30:58;1.07;;;0.97;;
12824;SDS011;6478;50.984;11.044;2022-07-22T08:33:24;3.17;;;1.20;;
12824;SDS011;6478;50.984;11.044;2022-07-22T08:35:50;1.20;;;1.10;;
12824;SDS011;6478;50.984;11.044;2022-07-22T08:38:16;1.13;;;1.03;;
12824;SDS011;6478;50.984;11.044;2022-07-22T08:40:42;1.23;;;1.13;;
12824;SDS011;6478;50.984;11.044;2022-07-22T08:43:08;1.23;;;1.10;;
12824;SDS011;6478;50.984;11.044;2022-07-22T08:45:34;0.87;;;0.87;;
12824;SDS011;6478;50.984;11.044;2022-07-22T08:48:00;0.80;;;0.80;;
12824;SDS011;6478;50.984;11.044;2022-07-22T08:50:28;1.17;;;0.93;;
12824;SDS011;6478;50.984;11.044;2022-07-22T08:52:55;1.90;;;1.07;;
12824;SDS011;6478;50.984;11.044;2022-07-22T08:55:21;1.20;;;1.00;;
12824;SDS011;6478;50.984;11.044;2022-07-22T08:57:47;1.20;;;1.10;;
12824;SDS011;6478;50.984;11.044;2022-07-22T09:00:15;1.07;;;0.97;;
12824;SDS011;6478;50.984;11.044;2022-07-22T09:02:42;1.10;;;1.00;;
12824;SDS011;6478;50.984;11.044;2022-07-22T09:05:09;2.10;;;1.20;;
12824;SDS011;6478;50.984;11.044;2022-07-22T09:07:36;1.30;;;1.20;;
12824;SDS011;6478;50.984;11.044;2022-07-22T09:10:04;1.20;;;1.10;;
12824;SDS011;6478;50.984;11.044;2022-07-22T09:12:30;1.30;;;1.20;;
12824;SDS011;6478;50.984;11.044;2022-07-22T09:14:57;1.50;;;1.07;;
12824;SDS011;6478;50.984;11.044;2022-07-22T09:17:28;1.20;;;1.00;;
12824;SDS011;6478;50.984;11.044;2022-07-22T09:19:58;1.40;;;1.23;;
12824;SDS011;6478;50.984;11.044;2022-07-22T09:22:31;1.80;;;1.15;;
12824;SDS011;6478;50.984;11.044;2022-07-22T09:24:57;0.73;;;0.73;;
12824;SDS011;6478;50.984;11.044;2022-07-22T09:27:24;1.40;;;1.17;;
12824;SDS011;6478;50.984;11.044;2022-07-22T09:29:50;1.10;;;1.02;;
12824;SDS011;6478;50.984;11.044;2022-07-22T09:32:18;1.50;;;1.30;;
12824;SDS011;6478;50.984;11.044;2022-07-22T09:34:44;1.38;;;1.20;;
12824;SDS011;6478;50.984;11.044;2022-07-22T09:37:10;1.33;;;1.23;;
12824;SDS011;6478;50.984;11.044;2022-07-22T09:39:36;0.93;;;0.93;;
12824;SDS011;6478;50.984;11.044;2022-07-22T09:42:04;0.95;;;0.90;;
12824;SDS011;6478;50.984;11.044;2022-07-22T09:44:30;1.13;;;1.10;;
12824;SDS011;6478;50.984;11.044;2022-07-22T09:46:56;1.25;;;1.15;;
12824;SDS011;6478;50.984;11.044;2022-07-22T09:49:35;1.02;;;1.00;;
12824;SDS011;6478;50.984;11.044;2022-07-22T09:52:05;1.10;;;1.00;;
12824;SDS011;6478;50.984;11.044;2022-07-22T09:54:31;1.80;;;1.10;;
12824;SDS011;6478;50.984;11.044;2022-07-22T09:56:58;1.50;;;1.40;;
12824;SDS011;6478;50.984;11.044;2022-07-22T09:59:24;1.50;;;1.40;;
12824;SDS011;6478;50.984;11.044;2022-07-22T10:01:52;1.40;;;1.30;;
12824;SDS011;6478;50.984;11.044;2022-07-22T10:04:19;1.83;;;1.45;;
12824;SDS011;6478;50.984;11.044;2022-07-22T10:06:47;1.48;;;1.35;;
12824;SDS011;6478;50.984;11.044;2022-07-22T10:09:14;2.47;;;1.60;;
12824;SDS011;6478;50.984;11.044;2022-07-22T10:11:40;1.33;;;1.25;;
12824;SDS011;6478;50.984;11.044;2022-07-22T10:14:10;2.78;;;1.70;;
12824;SDS011;6478;50.984;11.044;2022-07-22T10:16:37;1.98;;;1.40;;
12824;SDS011;6478;50.984;11.044;2022-07-22T10:19:03;2.58;;;1.77;;
12824;SDS011;6478;50.984;11.044;2022-07-22T10:21:32;3.22;;;1.38;;
12824;SDS011;6478;50.984;11.044;2022-07-22T10:24:12;2.05;;;1.30;;
12824;SDS011;6478;50.984;11.044;2022-07-22T10:26:51;2.03;;;1.33;;
12824;SDS011;6478;50.984;11.044;2022-07-22T10:29:31;1.27;;;1.17;;
12824;SDS011;6478;50.984;11.044;2022-07-22T10:34:42;2.13;;;1.40;;
12824;SDS011;6478;50.984;11.044;2022-07-22T10:40:09;1.48;;;1.33;;
12824;SDS011;6478;50.984;11.044;2022-07-22T10:43:02;2.83;;;1.60;;
12824;SDS011;6478;50.984;11.044;2022-07-22T10:45:21;1.80;;;1.20;;
12824;SDS011;6478;50.984;11.044;2022-07-22T10:47:51;1.73;;;1.33;;
12824;SDS011;6478;50.984;11.044;2022-07-22T10:53:03;2.78;;;1.58;;
12824;SDS011;6478;50.984;11.044;2022-07-22T10:55:30;4.85;;;1.80;;
12824;SDS011;6478;50.984;11.044;2022-07-22T10:57:56;1.42;;;1.20;;
12824;SDS011;6478;50.984;11.044;2022-07-22T11:00:22;1.92;;;1.40;;
12824;SDS011;6478;50.984;11.044;2022-07-22T11:02:48;2.28;;;1.23;;
12824;SDS011;6478;50.984;11.044;2022-07-22T11:05:14;2.70;;;1.30;;
12824;SDS011;6478;50.984;11.044;2022-07-22T11:07:50;3.08;;;1.60;;
12824;SDS011;6478;50.984;11.044;2022-07-22T11:10:16;1.80;;;1.40;;
12824;SDS011;6478;50.984;11.044;2022-07-22T11:12:43;2.53;;;1.60;;
12824;SDS011;6478;50.984;11.044;2022-07-22T11:15:09;2.65;;;1.83;;
12824;SDS011;6478;50.984;11.044;2022-07-22T11:17:36;1.98;;;1.60;;
12824;SDS011;6478;50.984;11.044;2022-07-22T11:20:03;2.63;;;1.80;;
12824;SDS011;6478;50.984;11.044;2022-07-22T11:22:29;2.65;;;1.58;;
12824;SDS011;6478;50.984;11.044;2022-07-22T11:24:55;1.55;;;1.30;;
12824;SDS011;6478;50.984;11.044;2022-07-22T11:27:22;2.58;;;1.73;;
12824;SDS011;6478;50.984;11.044;2022-07-22T11:29:48;1.83;;;1.73;;
12824;SDS011;6478;50.984;11.044;2022-07-22T11:32:15;2.05;;;1.50;;
12824;SDS011;6478;50.984;11.044;2022-07-22T11:34:42;1.67;;;1.52;;
12824;SDS011;6478;50.984;11.044;2022-07-22T11:37:12;1.60;;;1.50;;
12824;SDS011;6478;50.984;11.044;2022-07-22T11:39:39;1.63;;;1.52;;
12824;SDS011;6478;50.984;11.044;2022-07-22T11:42:05;1.95;;;1.73;;
12824;SDS011;6478;50.984;11.044;2022-07-22T11:44:32;1.55;;;1.45;;
12824;SDS011;6478;50.984;11.044;2022-07-22T11:46:59;1.63;;;1.52;;
12824;SDS011;6478;50.984;11.044;2022-07-22T11:49:26;2.75;;;1.70;;
12824;SDS011;6478;50.984;11.044;2022-07-22T11:51:52;2.47;;;1.60;;
12824;SDS011;6478;50.984;11.044;2022-07-22T11:54:18;2.55;;;1.88;;
12824;SDS011;6478;50.984;11.044;2022-07-22T11:56:44;2.05;;;1.60;;
12824;SDS011;6478;50.984;11.044;2022-07-22T11:59:16;1.70;;;1.60;;
12824;SDS011;6478;50.984;11.044;2022-07-22T12:01:43;2.10;;;1.90;;
12824;SDS011;6478;50.984;11.044;2022-07-22T12:04:10;1.50;;;1.40;;
12824;SDS011;6478;50.984;11.044;2022-07-22T12:06:38;2.10;;;1.90;;
12824;SDS011;6478;50.984;11.044;2022-07-22T12:09:09;1.67;;;1.58;;
12824;SDS011;6478;50.984;11.044;2022-07-22T12:11:36;1.67;;;1.50;;
12824;SDS011;6478;50.984;11.044;2022-07-22T12:14:09;1.70;;;1.60;;
12824;SDS011;6478;50.984;11.044;2022-07-22T12:16:35;1.92;;;1.73;;
12824;SDS011;6478;50.984;11.044;2022-07-22T12:19:03;2.15;;;1.75;;
12824;SDS011;6478;50.984;11.044;2022-07-22T12:21:31;1.98;;;1.88;;
12824;SDS011;6478;50.984;11.044;2022-07-22T12:24:01;2.33;;;1.83;;
12824;SDS011;6478;50.984;11.044;2022-07-22T12:26:37;1.60;;;1.50;;
12824;SDS011;6478;50.984;11.044;2022-07-22T12:31:46;2.17;;;2.05;;
12824;SDS011;6478;50.984;11.044;2022-07-22T12:34:12;3.17;;;2.00;;
12824;SDS011;6478;50.984;11.044;2022-07-22T12:36:38;2.15;;;1.77;;
12824;SDS011;6478;50.984;11.044;2022-07-22T12:39:37;1.80;;;1.70;;
12824;SDS011;6478;50.984;11.044;2022-07-22T12:41:56;2.30;;;2.10;;
12824;SDS011;6478;50.984;11.044;2022-07-22T12:44:23;2.30;;;2.10;;
12824;SDS011;6478;50.984;11.044;2022-07-22T12:46:52;5.85;;;2.28;;
12824;SDS011;6478;50.984;11.044;2022-07-22T12:49:22;6.97;;;2.33;;
12824;SDS011;6478;50.984;11.044;2022-07-22T12:52:10;2.40;;;2.20;;
12824;SDS011;6478;50.984;11.044;2022-07-22T12:54:34;2.92;;;2.50;;
12824;SDS011;6478;50.984;11.044;2022-07-22T12:57:00;2.10;;;1.90;;
12824;SDS011;6478;50.984;11.044;2022-07-22T12:59:27;4.05;;;2.10;;
12824;SDS011;6478;50.984;11.044;2022-07-22T13:01:53;2.25;;;2.08;;
12824;SDS011;6478;50.984;11.044;2022-07-22T13:04:19;2.38;;;2.17;;
12824;SDS011;6478;50.984;11.044;2022-07-22T13:06:45;2.22;;;2.03;;
12824;SDS011;6478;50.984;11.044;2022-07-22T13:09:10;2.05;;;1.95;;
12824;SDS011;6478;50.984;11.044;2022-07-22T13:11:36;3.20;;;2.40;;
12824;SDS011;6478;50.984;11.044;2022-07-22T13:14:08;2.60;;;2.40;;
12824;SDS011;6478;50.984;11.044;2022-07-22T13:16:34;4.38;;;2.22;;
12824;SDS011;6478;50.984;11.044;2022-07-22T13:19:00;2.45;;;2.25;;
12824;SDS011;6478;50.984;11.044;2022-07-22T13:21:26;2.60;;;2.40;;
12824;SDS011;6478;50.984;11.044;2022-07-22T13:23:52;3.47;;;2.65;;
12824;SDS011;6478;50.984;11.044;2022-07-22T13:26:18;2.75;;;2.25;;
12824;SDS011;6478;50.984;11.044;2022-07-22T13:28:43;2.72;;;2.45;;
12824;SDS011;6478;50.984;11.044;2022-07-22T13:31:10;3.17;;;1.98;;
12824;SDS011;6478;50.984;11.044;2022-07-22T13:33:35;2.38;;;2.17;;
12824;SDS011;6478;50.984;11.044;2022-07-22T13:36:02;3.80;;;2.45;;
12824;SDS011;6478;50.984;11.044;2022-07-22T13:38:28;2.35;;;2.15;;
12824;SDS011;6478;50.984;11.044;2022-07-22T13:40:55;3.83;;;2.72;;
12824;SDS011;6478;50.984;11.044;2022-07-22T13:43:22;2.50;;;2.30;;
12824;SDS011;6478;50.984;11.044;2022-07-22T13:45:48;2.53;;;2.33;;
12824;SDS011;6478;50.984;11.044;2022-07-22T13:48:14;3.45;;;2.53;;
12824;SDS011;6478;50.984;11.044;2022-07-22T13:50:42;2.65;;;2.45;;
12824;SDS011;6478;50.984;11.044;2022-07-22T13:53:08;2.70;;;2.50;;
12824;SDS011;6478;50.984;11.044;2022-07-22T13:55:34;3.65;;;2.30;;
12824;SDS011;6478;50.984;11.044;2022-07-22T13:58:00;2.90;;;2.42;;
12824;SDS011;6478;50.984;11.044;2022-07-22T14:00:26;2.97;;;2.45;;
12824;SDS011;6478;50.984;11.044;2022-07-22T14:02:52;2.88;;;2.67;;
12824;SDS011;6478;50.984;11.044;2022-07-22T14:05:18;2.88;;;2.28;;
12824;SDS011;6478;50.984;11.044;2022-07-22T14:07:44;2.40;;;2.20;;
12824;SDS011;6478;50.984;11.044;2022-07-22T14:10:10;3.95;;;2.60;;
12824;SDS011;6478;50.984;11.044;2022-07-22T14:12:36;2.45;;;2.25;;
12824;SDS011;6478;50.984;11.044;2022-07-22T14:15:02;4.28;;;2.83;;
12824;SDS011;6478;50.984;11.044;2022-07-22T14:17:28;3.05;;;2.60;;
12824;SDS011;6478;50.984;11.044;2022-07-22T14:19:54;4.00;;;2.65;;
12824;SDS011;6478;50.984;11.044;2022-07-22T14:22:20;2.63;;;2.38;;
12824;SDS011;6478;50.984;11.044;2022-07-22T14:24:46;2.50;;;2.10;;
12824;SDS011;6478;50.984;11.044;2022-07-22T14:27:12;4.25;;;2.67;;
12824;SDS011;6478;50.984;11.044;2022-07-22T14:29:38;2.70;;;2.47;;
12824;SDS011;6478;50.984;11.044;2022-07-22T14:32:04;3.00;;;2.47;;
12824;SDS011;6478;50.984;11.044;2022-07-22T14:34:31;2.50;;;2.30;;
12824;SDS011;6478;50.984;11.044;2022-07-22T14:36:57;4.03;;;3.08;;
12824;SDS011;6478;50.984;11.044;2022-07-22T14:39:22;3.08;;;2.42;;
12824;SDS011;6478;50.984;11.044;2022-07-22T14:41:48;11.75;;;9.90;;
12824;SDS011;6478;50.984;11.044;2022-07-22T14:44:14;19.25;;;17.35;;
12824;SDS011;6478;50.984;11.044;2022-07-22T14:46:40;8.57;;;7.78;;
12824;SDS011;6478;50.984;11.044;2022-07-22T14:49:06;6.47;;;5.00;;
12824;SDS011;6478;50.984;11.044;2022-07-22T14:51:32;3.65;;;3.22;;
12824;SDS011;6478;50.984;11.044;2022-07-22T14:53:58;2.90;;;2.70;;
12824;SDS011;6478;50.984;11.044;2022-07-22T14:56:24;2.72;;;2.53;;